Time;durP1;ratioP1;P1;durP2;ratioP2;P2;SDS_P1;SDS_P2;PMS_P1;PMS_P2;Temp;Humidity;BMP_temperature;BMP_pressure;BME280_temperature;BME280_humidity;BME280_pressure;Samples;Min_cycle;Max_cycle;Signal;HPM_P1;HPM_P2
2022/01/26 00:06:41;;;;;;;21.00;11.97;;;0.90;99.90;;;;;;5034408;28;20295;-58
2022/01/26 00:09:07;;;;;;;18.63;10.80;;;0.90;99.90;;;;;;5033725;28;20497;-59
2022/01/26 00:11:34;;;;;;;17.00;10.23;;;0.90;99.90;;;;;;5034141;28;20473;-59
2022/01/26 00:14:02;;;;;;;17.10;10.87;;;0.80;99.90;;;;;;5034774;28;20510;-61
2022/01/26 00:16:43;;;;;;;16.43;9.83;;;0.90;99.90;;;;;;5034111;28;20795;-58
2022/01/26 00:19:17;;;;;;;12.97;8.77;;;0.90;99.90;;;;;;5034512;28;20418;-62
2022/01/26 00:21:53;;;;;;;14.93;9.23;;;;;;;;;;5034230;28;20416;-60
2022/01/26 00:27:43;;;;;;;14.43;9.37;;;;;;;;;;5033722;28;20445;-59
2022/01/26 00:30:17;;;;;;;13.97;9.13;;;;;;;;;;5033646;28;20462;-60
2022/01/26 00:41:03;;;;;;;17.07;10.23;;;;;;;;;;5031987;28;20449;-60
2022/01/26 00:43:28;;;;;;;15.50;9.93;;;0.90;99.90;;;;;;5037316;28;20934;-57
2022/01/26 00:45:57;;;;;;;15.80;9.83;;;;;;;;;;5033589;28;20473;-61
2022/01/26 00:48:24;;;;;;;14.13;9.60;;;1.20;99.90;;;;;;5033652;28;20255;-61
2022/01/26 00:50:52;;;;;;;16.23;10.27;;;0.90;99.90;;;;;;5034081;28;20549;-57
2022/01/26 00:53:27;;;;;;;16.40;10.10;;;1.00;99.90;;;;;;5033905;28;20441;-58
2022/01/26 00:55:52;;;;;;;15.97;9.27;;;1.20;99.90;;;;;;5033916;28;20494;-60
2022/01/26 00:58:18;;;;;;;13.90;9.93;;;;;;;;;;5033331;28;20533;-61
2022/01/26 01:00:44;;;;;;;19.03;11.20;;;1.30;99.90;;;;;;5032297;28;20183;-57
2022/01/26 01:03:10;;;;;;;19.63;11.23;;;;;;;;;;5034472;28;20168;-60
2022/01/26 01:05:51;;;;;;;15.67;10.90;;;;;;;;;;5033430;28;20172;-61
2022/01/26 01:08:20;;;;;;;16.63;11.43;;;1.40;99.90;;;;;;5036277;28;20426;-59
2022/01/26 01:10:49;;;;;;;15.07;10.47;;;;;;;;;;5042525;28;20457;-58
2022/01/26 01:13:19;;;;;;;16.93;11.03;;;1.20;99.90;;;;;;5036702;28;20168;-59
2022/01/26 01:15:46;;;;;;;15.10;9.83;;;0.80;99.90;;;;;;5033078;28;20411;-59
2022/01/26 01:21:03;;;;;;;16.00;11.27;;;;;;;;;;5034528;28;20415;-56
2022/01/26 01:31:17;;;;;;;18.10;11.43;;;;;;;;;;5034599;28;20337;-61
2022/01/26 01:33:46;;;;;;;17.50;11.37;;;1.20;99.90;;;;;;5034008;28;20464;-60
2022/01/26 01:36:12;;;;;;;14.93;11.07;;;0.70;99.90;;;;;;5033530;28;20836;-60
2022/01/26 01:38:41;;;;;;;13.17;9.80;;;0.90;99.90;;;;;;5034298;28;20407;-61
2022/01/26 01:41:07;;;;;;;15.37;10.33;;;1.00;99.90;;;;;;5034569;28;20418;-60
2022/01/26 01:43:33;;;;;;;13.17;9.47;;;0.70;99.90;;;;;;5034462;28;20414;-59
2022/01/26 01:45:59;;;;;;;14.73;10.07;;;0.60;99.90;;;;;;5034019;28;20181;-59
2022/01/26 01:48:29;;;;;;;17.10;11.33;;;0.50;99.90;;;;;;5034187;28;20787;-59
2022/01/26 01:50:57;;;;;;;16.63;12.07;;;0.80;99.90;;;;;;5033778;28;20208;-61
2022/01/26 01:53:38;;;;;;;15.70;11.03;;;1.00;99.90;;;;;;5033910;28;20418;-59
2022/01/26 01:56:05;;;;;;;12.53;8.80;;;1.10;99.90;;;;;;5033647;28;20974;-60
2022/01/26 01:58:31;;;;;;;13.30;9.00;;;;;;;;;;5033692;28;20403;-58
2022/01/26 02:00:57;;;;;;;14.17;9.57;;;0.50;99.90;;;;;;5032714;28;20500;-59
2022/01/26 02:03:24;;;;;;;13.27;8.50;;;1.20;99.90;;;;;;5033674;28;20822;-58
2022/01/26 02:05:50;;;;;;;16.20;9.23;;;1.00;99.90;;;;;;5030412;28;20439;-56
2022/01/26 02:08:16;;;;;;;15.03;9.93;;;;;;;;;;5033279;28;20446;-61
2022/01/26 02:10:42;;;;;;;14.17;10.37;;;;;;;;;;5032738;28;20226;-60
2022/01/26 02:13:23;;;;;;;15.43;10.60;;;1.40;99.90;;;;;;5033555;28;20712;-60
2022/01/26 02:54:17;;;;;;;12.83;8.53;;;;;;;;;;5038678;28;20407;-62
2022/01/26 02:56:52;;;;;;;14.60;9.37;;;0.70;99.90;;;;;;5036604;28;20521;-59
2022/01/26 03:02:19;;;;;;;14.17;9.00;;;0.90;99.90;;;;;;5036461;28;20183;-57
2022/01/26 03:04:49;;;;;;;13.83;9.20;;;;;;;;;;5035467;28;20406;-60
2022/01/26 03:07:39;;;;;;;14.30;8.87;;;;;;;;;;5035897;28;20815;-58
2022/01/26 03:10:14;;;;;;;12.80;8.17;;;1.30;99.90;;;;;;5035321;28;20833;-58
2022/01/26 03:12:50;;;;;;;15.87;9.03;;;1.90;99.90;;;;;;5035296;28;20197;-56
2022/01/26 03:15:23;;;;;;;13.77;8.67;;;;;;;;;;5035442;28;20417;-59
2022/01/26 03:18:29;;;;;;;13.23;8.30;;;1.40;99.90;;;;;;5035635;28;20438;-58
2022/01/26 03:20:45;;;;;;;12.33;8.27;;;;;;;;;;5035283;28;20487;-57
2022/01/26 03:28:47;;;;;;;14.40;8.63;;;1.60;99.90;;;;;;5035460;28;20442;-58
2022/01/26 03:33:56;;;;;;;14.40;9.50;;;;;;;;;;5033739;28;20990;-61
2022/01/26 03:36:26;;;;;;;17.67;9.70;;;1.00;99.90;;;;;;5033602;28;20438;-59
2022/01/26 03:39:00;;;;;;;14.93;9.80;;;1.30;99.90;;;;;;5034588;28;20425;-58
2022/01/26 03:43:51;;;;;;;15.80;9.93;;;;;;;;;;5034051;28;20797;-56
2022/01/26 03:46:17;;;;;;;16.00;10.53;;;1.20;99.90;;;;;;5035010;28;20729;-59
2022/01/26 03:48:43;;;;;;;15.80;10.20;;;0.80;99.90;;;;;;5035336;28;20676;-58
2022/01/26 03:51:08;;;;;;;15.10;10.00;;;0.60;99.90;;;;;;5035719;28;20538;-59
2022/01/26 03:53:34;;;;;;;22.33;12.23;;;0.60;99.90;;;;;;5035318;28;20386;-58
2022/01/26 03:55:59;;;;;;;19.03;11.50;;;0.30;99.90;;;;;;5035510;28;20539;-58
2022/01/26 03:58:25;;;;;;;20.13;12.20;;;0.70;99.90;;;;;;5035556;28;20195;-60
2022/01/26 04:00:51;;;;;;;18.77;11.77;;;;;;;;;;5035584;28;20171;-61
2022/01/26 04:03:17;;;;;;;22.70;12.03;;;;;;;;;;5035383;28;20179;-57
2022/01/26 04:05:43;;;;;;;22.13;13.30;;;;;;;;;;5033405;28;20411;-57
2022/01/26 04:08:15;;;;;;;22.97;13.13;;;;;;;;;;5035148;28;20426;-61
2022/01/26 04:13:07;;;;;;;24.80;13.67;;;;;;;;;;5035409;28;20421;-55
2022/01/26 04:15:35;;;;;;;23.87;13.27;;;;;;;;;;5034826;28;20945;-57
2022/01/26 04:18:04;;;;;;;23.83;14.23;;;1.40;99.90;;;;;;5036252;28;20216;-60
2022/01/26 04:20:35;;;;;;;29.23;15.63;;;;;;;;;;5042245;28;20422;-59
2022/01/26 04:23:13;;;;;;;23.83;14.70;;;1.70;99.90;;;;;;5035437;28;20426;-58
2022/01/26 04:25:41;;;;;;;27.97;14.47;;;2.20;99.90;;;;;;5034957;28;20410;-59
2022/01/26 04:28:11;;;;;;;25.43;14.73;;;1.60;99.90;;;;;;5034712;28;20253;-57
2022/01/26 04:30:37;;;;;;;24.10;14.40;;;1.10;99.90;;;;;;5034928;28;20686;-60
2022/01/26 04:33:05;;;;;;;30.20;15.90;;;1.20;99.90;;;;;;5034969;28;20568;-59
2022/01/26 04:35:31;;;;;;;23.93;13.77;;;1.10;99.90;;;;;;5034870;28;20414;-56
2022/01/26 04:40:54;;;;;;;27.73;15.67;;;;;;;;;;5035067;28;20477;-59
2022/01/26 04:43:25;;;;;;;26.87;15.20;;;1.40;99.90;;;;;;5034197;28;20981;-60
2022/01/26 04:45:50;;;;;;;27.17;14.70;;;1.30;99.90;;;;;;5034774;28;20238;-56
2022/01/26 04:48:18;;;;;;;29.00;15.47;;;;;;;;;;5034936;28;20434;-59
2022/01/26 04:50:44;;;;;;;29.53;17.13;;;;;;;;;;5035185;28;20238;-59
2022/01/26 04:53:10;;;;;;;29.00;16.43;;;;;;;;;;5032779;28;20407;-58
2022/01/26 04:55:35;;;;;;;28.33;16.73;;;1.70;99.90;;;;;;5032828;28;20167;-60
2022/01/26 04:58:01;;;;;;;28.97;15.70;;;;;;;;;;5032967;28;20215;-61
2022/01/26 05:00:27;;;;;;;30.50;16.43;;;1.80;99.90;;;;;;5033927;28;20172;-59
2022/01/26 05:02:53;;;;;;;26.60;15.40;;;;;;;;;;5017308;28;20244;-59
2022/01/26 05:05:19;;;;;;;28.70;15.97;;;;;;;;;;5033971;28;20180;-58
2022/01/26 05:07:45;;;;;;;30.73;17.57;;;;;;;;;;5034723;28;20253;-59
2022/01/26 05:10:11;;;;;;;28.10;15.87;;;;;;;;;;5032748;28;20227;-59
2022/01/26 05:12:38;;;;;;;31.83;16.07;;;;;;;;;;5035474;28;20310;-60
2022/01/26 05:15:04;;;;;;;27.17;16.03;;;1.30;99.90;;;;;;5034501;28;20414;-61
2022/01/26 05:20:17;;;;;;;24.33;14.63;;;1.20;99.90;;;;;;5025371;22;20534;-92
2022/01/26 05:22:44;;;;;;;28.67;15.40;;;;;;;;;;4996521;28;20550;-90
2022/01/26 05:25:11;;;;;;;27.30;16.23;;;1.30;99.90;;;;;;4996637;28;20407;-92
2022/01/26 05:27:37;;;;;;;27.43;15.63;;;;;;;;;;4998799;28;20427;-91
2022/01/26 05:30:04;;;;;;;31.60;15.90;;;1.20;99.90;;;;;;4997901;28;20219;-94
2022/01/26 05:32:30;;;;;;;27.77;15.63;;;;;;;;;;4996967;28;20415;-90
2022/01/26 05:34:58;;;;;;;29.60;17.40;;;1.20;99.90;;;;;;4996768;28;20407;-91
2022/01/26 05:37:24;;;;;;;28.37;16.83;;;;;;;;;;4995746;28;20415;-90
2022/01/26 05:39:50;;;;;;;28.07;17.20;;;;;;;;;;4996674;28;20609;-91
2022/01/26 05:42:17;;;;;;;25.33;15.23;;;;;;;;;;4996175;28;20403;-90
2022/01/26 05:44:44;;;;;;;27.60;16.47;;;2.10;99.90;;;;;;4996499;28;20498;-90
2022/01/26 05:47:15;;;;;;;27.47;16.10;;;;;;;;;;4997405;28;20442;-89
2022/01/26 05:49:41;;;;;;;27.90;15.67;;;;;;;;;;4997605;28;20415;-90
2022/01/26 05:52:07;;;;;;;27.30;15.87;;;1.30;99.90;;;;;;4997092;28;20423;-91
2022/01/26 05:54:34;;;;;;;29.90;16.13;;;1.30;99.90;;;;;;4991812;28;20185;-91
2022/01/26 05:57:00;;;;;;;27.20;14.93;;;;;;;;;;4993219;28;20192;-90
2022/01/26 05:59:27;;;;;;;26.93;14.83;;;1.20;99.90;;;;;;4992905;28;20192;-88
2022/01/26 06:01:53;;;;;;;30.37;16.60;;;;;;;;;;4995983;28;20624;-89
2022/01/26 06:04:19;;;;;;;30.53;16.73;;;;;;;;;;4996064;28;20404;-89
2022/01/26 06:06:45;;;;;;;31.97;15.90;;;;;;;;;;4997737;28;20421;-91
2022/01/26 06:09:11;;;;;;;28.37;14.97;;;;;;;;;;4999565;28;20436;-90
2022/01/26 06:11:39;;;;;;;24.63;14.27;;;0.90;99.90;;;;;;4998695;28;20478;-90
2022/01/26 06:14:05;;;;;;;30.33;16.00;;;;;;;;;;5003270;28;20960;-90
2022/01/26 06:16:32;;;;;;;29.77;15.50;;;;;;;;;;4978838;28;20488;-92
2022/01/26 06:18:58;;;;;;;28.27;16.03;;;;;;;;;;4978395;28;20460;-90
2022/01/26 06:21:24;;;;;;;33.30;17.00;;;;;;;;;;4978268;28;20887;-90
2022/01/26 06:23:51;;;;;;;34.17;16.87;;;;;;;;;;4979275;28;20183;-90
2022/01/26 06:26:17;;;;;;;29.97;16.70;;;;;;;;;;4994798;28;20188;-90
2022/01/26 06:28:43;;;;;;;31.83;17.27;;;;;;;;;;4999520;28;20407;-92
2022/01/26 06:31:11;;;;;;;31.00;17.43;;;;;;;;;;5008641;28;20545;-91
2022/01/26 06:33:40;;;;;;;34.13;18.17;;;1.20;99.90;;;;;;5018822;28;20406;-91
2022/01/26 06:36:06;;;;;;;38.23;18.07;;;;;;;;;;5018879;28;20415;-91
2022/01/26 06:38:34;;;;;;;33.30;17.10;;;1.40;99.90;;;;;;5019013;28;20990;-91
2022/01/26 06:41:01;;;;;;;32.30;16.90;;;;;;;;;;5007620;28;20861;-93
2022/01/26 06:43:30;;;;;;;32.07;18.30;;;;;;;;;;4995148;28;20486;-92
2022/01/26 06:46:05;;;;;;;30.97;17.47;;;;;;;;;;4997533;28;20434;-91
2022/01/26 06:51:00;;;;;;;31.60;17.83;;;1.60;99.90;;;;;;5016430;28;20208;-90
2022/01/26 06:53:28;;;;;;;35.87;18.60;;;1.60;99.90;;;;;;4999133;28;20172;-90
2022/01/26 06:55:54;;;;;;;32.00;18.07;;;;;;;;;;4998175;28;20184;-89
2022/01/26 06:58:20;;;;;;;45.87;19.87;;;1.50;99.90;;;;;;4999465;28;20416;-90
2022/01/26 07:00:51;;;;;;;38.70;18.90;;;1.70;99.90;;;;;;4998713;28;20184;-91
2022/01/26 07:03:17;;;;;;;33.43;18.23;;;;;;;;;;4999092;28;20575;-91
2022/01/26 07:05:43;;;;;;;35.63;18.10;;;;;;;;;;4998957;28;20422;-91
2022/01/26 07:08:09;;;;;;;36.93;17.37;;;0.30;99.90;;;;;;4999257;28;20168;-92
2022/01/26 07:10:36;;;;;;;34.87;17.90;;;1.80;99.90;;;;;;4998747;28;20216;-92
2022/01/26 07:13:02;;;;;;;30.73;17.03;;;1.70;99.90;;;;;;4996215;28;20172;-90
2022/01/26 07:23:59;;;;;;;34.07;17.00;;;1.90;99.90;;;;;;4948414;29;20903;-91
2022/01/26 07:26:28;;;;;;;35.47;17.27;;;3.60;99.90;;;;;;4955526;28;20650;-90
2022/01/26 07:29:07;;;;;;;30.97;15.80;;;2.10;99.90;;;;;;4936265;29;20187;-92
2022/01/26 07:31:35;;;;;;;37.47;18.13;;;3.80;99.90;;;;;;4936368;29;20215;-91
2022/01/26 07:34:12;;;;;;;29.40;16.37;;;1.80;99.90;;;;;;4951569;29;20190;-92
2022/01/26 07:36:38;;;;;;;35.33;16.63;;;2.40;99.90;;;;;;4955213;29;20170;-92
2022/01/26 07:39:12;;;;;;;35.60;17.27;;;;;;;;;;4963414;28;20178;-90
2022/01/26 07:41:37;;;;;;;40.10;17.63;;;1.40;99.90;;;;;;4939243;28;20222;-91
2022/01/26 07:44:04;;;;;;;31.93;16.23;;;1.30;99.90;;;;;;4966227;28;20241;-91
2022/01/26 07:46:49;;;;;;;35.40;16.43;;;1.30;99.90;;;;;;4954803;29;20187;-91
2022/01/26 07:49:15;;;;;;;32.87;16.33;;;;;;;;;;4962778;28;20269;-90
2022/01/26 07:51:41;;;;;;;34.50;16.87;;;;;;;;;;4958179;28;20565;-90
2022/01/26 07:54:08;;;;;;;32.50;15.80;;;;;;;;;;4940348;28;20509;-89
2022/01/26 07:56:34;;;;;;;31.70;15.57;;;;;;;;;;4949948;29;20202;-89
2022/01/26 07:59:00;;;;;;;33.63;15.57;;;;;;;;;;4943719;28;20446;-89
2022/01/26 08:01:26;;;;;;;31.83;15.33;;;;;;;;;;4994657;28;20172;-89
2022/01/26 08:03:52;;;;;;;29.37;15.03;;;;;;;;;;4997240;28;20560;-89
2022/01/26 08:06:18;;;;;;;31.70;14.63;;;0.90;99.90;;;;;;4996739;28;20173;-89
2022/01/26 08:08:44;;;;;;;36.80;16.20;;;;;;;;;;4997017;28;20520;-89
2022/01/26 08:11:10;;;;;;;31.30;15.60;;;;;;;;;;4997662;28;20297;-89
2022/01/26 08:13:36;;;;;;;31.40;15.40;;;;;;;;;;4997390;28;20787;-89
2022/01/26 08:16:02;;;;;;;29.63;14.67;;;0.70;99.90;;;;;;4997110;28;20411;-89
2022/01/26 08:18:28;;;;;;;31.23;16.20;;;;;;;;;;4996910;28;20178;-89
2022/01/26 08:21:01;;;;;;;30.13;15.03;;;;;;;;;;4997753;28;20779;-89
2022/01/26 08:23:27;;;;;;;30.37;15.23;;;;;;;;;;4998464;28;20436;-89
2022/01/26 08:25:53;;;;;;;27.80;15.53;;;;;;;;;;5017685;28;20467;-87
2022/01/26 08:28:25;;;;;;;27.20;15.17;;;;;;;;;;5022063;28;20161;-87
2022/01/26 08:30:51;;;;;;;28.30;13.97;;;;;;;;;;5022063;28;20231;-89
2022/01/26 08:33:17;;;;;;;31.80;15.10;;;;;;;;;;5018687;28;20450;-89
2022/01/26 08:35:43;;;;;;;28.33;14.33;;;1.10;99.90;;;;;;5038443;28;20400;-90
2022/01/26 08:38:09;;;;;;;27.00;13.63;;;;;;;;;;5021627;28;20164;-89
2022/01/26 08:40:34;;;;;;;27.67;14.43;;;1.10;99.90;;;;;;5020368;28;20173;-89
2022/01/26 08:43:01;;;;;;;26.70;13.60;;;1.20;99.90;;;;;;5008273;28;20526;-89
2022/01/26 08:45:27;;;;;;;29.30;14.40;;;;;;;;;;4998655;28;20208;-89
2022/01/26 08:47:53;;;;;;;28.23;14.43;;;1.20;99.90;;;;;;4998700;28;20407;-89
2022/01/26 08:50:19;;;;;;;25.20;13.70;;;3.40;99.90;;;;;;4997929;28;20699;-89
2022/01/26 08:52:45;;;;;;;27.67;14.03;;;;;;;;;;4997003;28;20184;-89
2022/01/26 08:55:11;;;;;;;27.13;13.40;;;;;;;;;;4996180;28;20918;-89
2022/01/26 08:57:37;;;;;;;26.27;12.73;;;0.90;99.90;;;;;;4996650;28;20408;-89
2022/01/26 09:00:08;;;;;;;26.40;13.43;;;0.90;99.90;;;;;;4996121;28;20183;-89
2022/01/26 09:02:35;;;;;;;27.83;13.23;;;1.10;99.90;;;;;;4996053;28;20411;-89
2022/01/26 09:05:03;;;;;;;26.20;12.70;;;2.40;99.90;;;;;;4995642;28;20412;-89
2022/01/26 09:07:29;;;;;;;24.00;13.60;;;1.30;99.90;;;;;;4996044;28;20175;-88
2022/01/26 09:09:59;;;;;;;23.17;13.33;;;;;;;;;;4996019;28;20467;-89
2022/01/26 09:12:26;;;;;;;23.53;12.37;;;1.40;99.90;;;;;;4996172;28;20172;-89
2022/01/26 09:14:52;;;;;;;24.43;12.70;;;3.20;99.90;;;;;;4995946;28;20462;-90
2022/01/26 09:17:19;;;;;;;25.03;13.73;;;2.80;99.90;;;;;;4995542;28;20264;-89
2022/01/26 09:19:46;;;;;;;24.47;12.70;;;1.60;99.90;;;;;;4996015;28;20219;-89
2022/01/26 09:22:15;;;;;;;28.97;14.20;;;1.60;99.90;;;;;;4996047;28;20252;-89
2022/01/26 09:24:42;;;;;;;27.77;14.17;;;3.20;99.90;;;;;;4995890;28;20407;-89
2022/01/26 09:27:12;;;;;;;24.73;13.57;;;3.00;99.90;;;;;;4995800;28;20486;-88
2022/01/26 09:29:38;;;;;;;26.67;14.17;;;1.70;99.90;;;;;;4995590;28;20173;-89
2022/01/26 09:32:04;;;;;;;27.20;14.13;;;1.80;99.90;;;;;;4995420;28;20695;-89
2022/01/26 09:34:35;;;;;;;26.03;13.77;;;1.80;99.90;;;;;;4996040;28;20250;-89
2022/01/26 09:37:02;;;;;;;24.60;13.47;;;1.80;99.90;;;;;;4995636;28;20180;-89
2022/01/26 09:39:28;;;;;;;23.20;13.13;;;3.30;99.90;;;;;;4995614;28;20176;-90
2022/01/26 09:41:53;;;;;;;25.53;14.17;;;1.80;99.90;;;;;;4995107;28;20271;-89
2022/01/26 09:44:19;;;;;;;26.27;13.83;;;3.50;99.90;;;;;;4995829;28;20524;-89
2022/01/26 09:46:45;;;;;;;24.63;13.70;;;3.20;99.90;;;;;;4995641;28;20524;-89
2022/01/26 09:49:14;;;;;;;22.63;12.87;;;1.90;99.90;;;;;;4995471;28;20639;-89
2022/01/26 09:51:43;;;;;;;23.30;13.53;;;2.00;99.90;;;;;;4995492;28;20563;-89
2022/01/26 09:54:13;;;;;;;26.03;14.40;;;2.00;99.90;;;;;;4995485;28;20180;-89
2022/01/26 09:56:40;;;;;;;23.53;14.20;;;2.40;99.90;;;;;;4995241;28;20267;-89
2022/01/26 09:59:08;;;;;;;25.13;14.33;;;1.90;99.90;;;;;;4995234;28;20203;-89
2022/01/26 10:01:41;;;;;;;26.83;14.67;;;1.80;99.90;;;;;;4995464;28;20186;-88
2022/01/26 10:04:17;;;;;;;25.77;14.60;;;2.50;99.90;;;;;;4995468;28;20223;-89
2022/01/26 10:06:43;;;;;;;27.17;14.17;;;3.90;99.90;;;;;;4995156;28;20188;-89
2022/01/26 10:17:42;;;;;;;29.73;15.30;;;1.90;99.90;;;;;;5012895;28;20599;-89
2022/01/26 10:20:15;;;;;;;29.07;14.67;;;3.70;99.90;;;;;;4995147;28;20235;-88
2022/01/26 10:22:42;;;;;;;27.17;15.50;;;1.70;99.90;;;;;;4995711;28;20176;-88
2022/01/26 10:25:15;;;;;;;29.03;15.57;;;2.50;99.90;;;;;;4995721;28;20243;-89
2022/01/26 10:27:48;;;;;;;27.63;15.20;;;1.70;99.90;;;;;;4995293;28;20696;-89
2022/01/26 10:30:15;;;;;;;26.90;14.67;;;1.70;99.90;;;;;;4994152;28;20267;-89
2022/01/26 10:32:46;;;;;;;29.33;15.00;;;1.80;99.90;;;;;;4994316;28;20267;-88
2022/01/26 10:35:14;;;;;;;26.83;14.73;;;2.60;99.90;;;;;;4993759;28;20712;-88
2022/01/26 10:37:55;;;;;;;29.10;13.73;;;1.80;99.90;;;;;;4993220;28;20176;-89
2022/01/26 10:40:25;;;;;;;25.47;14.03;;;1.80;99.90;;;;;;4995469;28;20187;-88
2022/01/26 10:43:12;;;;;;;25.03;14.63;;;3.70;99.90;;;;;;4994628;28;20177;-89
2022/01/26 10:45:50;;;;;;;24.07;13.60;;;4.20;99.90;;;;;;4995083;28;20649;-88
2022/01/26 10:53:40;;;;;;;29.37;14.90;;;3.50;99.90;;;;;;5015862;28;20172;-89
2022/01/26 10:56:06;;;;;;;26.27;14.87;;;1.80;99.90;;;;;;4998337;28;20172;-89
2022/01/26 10:58:32;;;;;;;25.23;14.90;;;1.80;99.90;;;;;;4998334;28;20572;-88
2022/01/26 11:00:58;;;;;;;27.80;15.90;;;2.70;99.90;;;;;;4998315;28;20172;-88
2022/01/26 11:03:24;;;;;;;24.57;14.17;;;1.80;99.90;;;;;;4998252;28;20612;-88
2022/01/26 11:05:50;;;;;;;25.33;14.20;;;3.30;99.90;;;;;;4998156;28;20177;-89
2022/01/26 11:08:17;;;;;;;25.67;15.03;;;1.90;99.90;;;;;;5015583;28;20200;-89
2022/01/26 11:10:46;;;;;;;28.03;14.93;;;2.00;99.90;;;;;;4999004;28;20595;-89
2022/01/26 11:13:23;;;;;;;29.43;14.00;;;2.10;99.90;;;;;;4999168;28;20252;-89
2022/01/26 11:15:48;;;;;;;26.90;13.97;;;2.00;99.90;;;;;;4999090;28;20164;-89
2022/01/26 11:18:22;;;;;;;26.63;15.07;;;3.20;99.90;;;;;;4998219;28;20180;-89
2022/01/26 11:20:50;;;;;;;26.47;15.03;;;2.90;99.90;;;;;;4998056;28;20187;-88
2022/01/26 11:23:32;;;;;;;26.60;14.93;;;3.60;99.90;;;;;;4997996;28;20288;-88
2022/01/26 11:25:58;;;;;;;27.67;15.07;;;2.90;99.90;;;;;;4997558;28;20663;-88
2022/01/26 11:28:27;;;;;;;24.97;14.73;;;1.70;99.90;;;;;;4997703;28;20199;-89
2022/01/26 11:30:58;;;;;;;28.70;14.27;;;1.70;99.90;;;;;;4997240;28;20679;-89
2022/01/26 11:33:27;;;;;;;28.47;14.13;;;1.90;99.90;;;;;;4998059;28;20176;-89
2022/01/26 11:35:55;;;;;;;26.27;14.33;;;1.90;99.90;;;;;;4997095;28;20620;-88
2022/01/26 11:46:27;;;;;;;26.23;15.03;;;1.80;99.90;;;;;;5014064;28;20219;-89
2022/01/26 11:49:11;;;;;;;25.53;14.40;;;3.00;99.90;;;;;;4996559;28;20179;-88
2022/01/26 11:51:43;;;;;;;27.30;15.27;;;4.20;99.90;;;;;;4996842;28;20557;-89
2022/01/26 11:54:14;;;;;;;25.57;14.63;;;2.10;99.90;;;;;;4997554;28;20179;-89
2022/01/26 11:56:40;;;;;;;25.67;14.17;;;2.00;99.90;;;;;;4996834;28;20346;-89
2022/01/26 11:59:17;;;;;;;25.20;14.70;;;1.80;99.90;;;;;;4997150;28;20208;-89
2022/01/26 12:01:45;;;;;;;26.80;14.63;;;1.80;99.90;;;;;;4997060;28;20180;-88
2022/01/26 12:04:16;;;;;;;28.57;15.23;;;3.20;99.90;;;;;;4995983;28;20172;-88
2022/01/26 12:06:49;;;;;;;26.50;15.53;;;3.80;99.90;;;;;;4997221;28;20498;-89
2022/01/26 12:09:17;;;;;;;26.40;14.97;;;1.70;99.90;;;;;;4997129;28;20196;-89
2022/01/26 12:11:50;;;;;;;25.17;14.87;;;1.70;99.90;;;;;;4996934;28;20275;-88
2022/01/26 12:14:20;;;;;;;26.13;14.83;;;1.70;99.90;;;;;;4996878;28;20168;-88
2022/01/26 12:16:48;;;;;;;26.70;15.30;;;1.70;99.90;;;;;;4995626;28;20180;-89
2022/01/26 12:33:59;;;;;;;30.13;15.60;;;2.10;99.90;;;;;;4953637;29;20669;-88
2022/01/26 12:36:56;;;;;;;26.53;14.17;;;2.00;99.90;;;;;;4952089;28;20310;-88
2022/01/26 12:41:16;;;;;;;26.37;14.50;;;1.90;99.90;;;;;;4937227;29;20182;-88
2022/01/26 12:42:13;;;;;;;22.63;13.70;;;2.00;99.90;;;;;;4953237;28;20798;-89
2022/01/26 12:44:39;;;;;;;25.13;14.17;;;2.00;99.90;;;;;;4952770;29;20261;-89
2022/01/26 12:47:05;;;;;;;23.53;14.07;;;2.10;99.90;;;;;;4953088;28;20209;-89
2022/01/26 12:49:31;;;;;;;24.77;14.63;;;4.50;99.90;;;;;;4953048;28;20216;-89
2022/01/26 12:51:57;;;;;;;23.13;13.10;;;2.20;99.90;;;;;;4953105;28;20240;-89
2022/01/26 12:54:24;;;;;;;25.10;13.90;;;2.20;99.90;;;;;;4953105;28;20182;-89
2022/01/26 12:56:50;;;;;;;23.17;12.83;;;2.20;99.90;;;;;;4952631;28;20658;-89
2022/01/26 12:59:20;;;;;;;25.90;14.27;;;4.20;99.90;;;;;;4952951;28;20190;-88
2022/01/26 13:01:47;;;;;;;25.50;13.77;;;2.10;99.90;;;;;;4952901;28;20178;-89
2022/01/26 13:04:16;;;;;;;28.07;13.60;;;2.10;99.90;;;;;;4967308;28;20356;-88
2022/01/26 13:06:52;;;;;;;20.87;13.20;;;2.00;99.90;;;;;;4995073;28;20172;-89
2022/01/26 13:09:25;;;;;;;27.13;14.93;;;2.00;99.90;;;;;;4996250;28;20179;-88
2022/01/26 13:11:56;;;;;;;23.17;14.13;;;1.90;99.90;;;;;;4995853;28;20208;-88
2022/01/26 13:14:29;;;;;;;25.23;14.70;;;4.30;99.90;;;;;;4995743;28;20173;-89
2022/01/26 13:16:59;;;;;;;24.93;14.40;;;3.50;99.90;;;;;;4995926;28;20204;-88
2022/01/26 13:24:48;;;;;;;27.50;14.37;;;3.60;99.90;;;;;;5013460;28;20184;-89
2022/01/26 13:30:48;;;;;;;25.70;14.53;;;3.00;99.90;;;;;;5013497;28;20195;-89
2022/01/26 13:36:25;;;;;;;23.37;13.77;;;2.00;99.90;;;;;;5016519;28;20588;-89
2022/01/26 13:39:19;;;;;;;27.63;14.30;;;2.00;99.90;;;;;;5001732;28;20172;-89
2022/01/26 13:49:48;;;;;;;26.33;15.40;;;;;;;;;;5013038;28;20181;-88
2022/01/26 13:52:34;;;;;;;29.10;14.83;;;1.80;99.90;;;;;;4993911;28;20181;-88
2022/01/26 14:00:31;;;;;;;33.87;16.83;;;2.20;99.90;;;;;;5013996;28;20219;-88
2022/01/26 14:03:01;;;;;;;31.37;16.73;;;2.10;99.90;;;;;;4996061;28;20172;-88
2022/01/26 14:05:26;;;;;;;31.57;17.57;;;2.00;99.90;;;;;;4995540;28;20175;-88
2022/01/26 14:07:56;;;;;;;28.90;17.20;;;4.40;99.90;;;;;;4995421;28;20177;-89
2022/01/26 14:10:22;;;;;;;34.03;16.93;;;2.10;99.90;;;;;;4995562;28;20223;-88
2022/01/26 14:12:49;;;;;;;31.60;16.50;;;;;;;;;;4995575;28;20177;-88
2022/01/26 14:15:20;;;;;;;28.13;16.20;;;2.10;99.90;;;;;;4995211;28;20303;-88
2022/01/26 14:26:09;;;;;;;33.53;17.87;;;2.00;99.90;;;;;;4920607;28;20194;-89
2022/01/26 14:28:36;;;;;;;37.27;18.10;;;2.00;99.90;;;;;;4939161;29;20178;-89
2022/01/26 14:39:51;;;;;;;38.00;20.80;;;2.50;99.90;;;;;;4898774;29;20185;-89
2022/01/26 14:54:05;;;;;;;37.33;20.67;;;;;;;;;;4922187;29;20180;-88
2022/01/26 15:00:06;;;;;;;37.50;19.77;;;2.10;99.90;;;;;;4932586;28;20224;-89
2022/01/26 15:22:48;;;;;;;26.33;15.23;;;1.90;99.90;;;;;;4917787;29;20670;-88
2022/01/26 15:30:04;;;;;;;24.47;14.37;;;1.80;99.90;;;;;;4898040;29;20188;-89
2022/01/26 15:35:25;;;;;;;24.93;14.20;;;;;;;;;;4897375;29;20219;-88
2022/01/26 15:41:02;;;;;;;23.23;14.10;;;1.70;99.90;;;;;;4898000;29;20571;-89
2022/01/26 15:51:14;;;;;;;22.10;13.77;;;1.90;99.90;;;;;;5014728;28;20227;-88
2022/01/26 15:59:24;;;;;;;26.20;14.63;;;1.30;99.90;;;;;;5012999;28;20573;-89
2022/01/26 16:05:07;;;;;;;24.30;15.30;;;1.40;99.90;;;;;;5006310;28;20247;-89
2022/01/26 16:08:35;;;;;;;23.87;13.20;;;;;;;;;;5005297;28;20176;-89
2022/01/26 16:21:08;;;;;;;24.27;14.37;;;;;;;;;;5014233;28;20239;-89
2022/01/26 17:48:28;;;;;;;33.00;18.07;;;3.10;99.90;;;;;;4875197;29;20223;-87
2022/01/26 18:17:05;;;;;;;32.90;19.90;;;1.70;99.90;;;;;;4997003;28;20169;-88
2022/01/26 18:38:57;;;;;;;30.40;17.43;;;1.60;99.90;;;;;;4996995;28;20176;-87
2022/01/26 18:49:37;;;;;;;26.37;16.27;;;;;;;;;;4996595;28;20259;-88
2022/01/26 18:52:04;;;;;;;28.83;15.07;;;1.70;99.90;;;;;;4978937;28;20472;-88
2022/01/26 18:54:40;;;;;;;25.37;14.47;;;2.10;99.90;;;;;;4979023;28;20217;-88
2022/01/26 18:57:08;;;;;;;27.83;15.73;;;1.90;99.90;;;;;;4978392;28;20177;-88
2022/01/26 18:59:35;;;;;;;23.90;14.77;;;2.00;99.90;;;;;;4978778;28;20573;-88
2022/01/26 19:02:01;;;;;;;26.33;14.90;;;2.10;99.90;;;;;;4978645;28;20551;-89
2022/01/26 19:04:42;;;;;;;29.23;15.43;;;2.00;99.90;;;;;;4978604;28;20173;-89
2022/01/26 19:07:08;;;;;;;27.70;15.33;;;1.70;99.90;;;;;;4978067;28;20180;-87
2022/01/26 19:09:39;;;;;;;27.77;14.97;;;2.00;99.90;;;;;;4996263;28;20186;-88
2022/01/26 19:12:08;;;;;;;24.67;14.67;;;1.80;99.90;;;;;;4978193;28;20315;-87
2022/01/26 19:14:35;;;;;;;25.83;14.97;;;1.70;99.90;;;;;;4994761;28;20189;-87
2022/01/26 19:19:47;;;;;;;26.03;14.90;;;1.80;99.90;;;;;;4996083;28;20184;-88
2022/01/26 19:27:36;;;;;;;23.23;14.17;;;2.10;99.90;;;;;;4995979;28;20516;-88
2022/01/26 19:46:24;;;;;;;26.50;14.17;;;2.10;99.90;;;;;;4995293;28;20191;-88
2022/01/26 19:51:37;;;;;;;24.67;12.77;;;1.80;99.90;;;;;;4995622;28;20669;-88
2022/01/26 19:54:03;;;;;;;23.03;14.30;;;2.00;99.90;;;;;;4994502;28;20177;-87
2022/01/26 19:56:28;;;;;;;23.77;14.23;;;1.60;99.90;;;;;;4994073;28;20743;-88
2022/01/26 19:58:54;;;;;;;24.70;14.07;;;1.80;99.90;;;;;;4994259;28;20198;-88
2022/01/26 20:01:21;;;;;;;24.70;14.37;;;;;;;;;;4993826;28;20188;-88
2022/01/26 20:03:48;;;;;;;26.63;14.20;;;2.00;99.90;;;;;;4977820;28;20556;-88
2022/01/26 20:06:13;;;;;;;26.27;14.67;;;2.00;99.90;;;;;;4994017;28;20618;-88
2022/01/26 20:08:55;;;;;;;25.23;13.87;;;;;;;;;;4995384;28;20176;-88
2022/01/26 20:11:37;;;;;;;24.87;14.10;;;;;;;;;;4977976;28;20229;-88